sensor_id;sensor_type;location;lat;lon;timestamp;P1;durP1;ratioP1;P2;durP2;ratioP2
23490;SDS011;14683;50.038;8.078;2023-03-21T03:49:23;9.40;;;2.10;;
23490;SDS011;14683;50.038;8.078;2023-03-21T03:52:01;5.72;;;2.15;;
23490;SDS011;14683;50.038;8.078;2023-03-21T03:54:42;6.18;;;2.42;;
23490;SDS011;14683;50.038;8.078;2023-03-21T03:57:09;3.92;;;2.00;;
23490;SDS011;14683;50.038;8.078;2023-03-21T03:59:39;2.90;;;2.63;;
23490;SDS011;14683;50.038;8.078;2023-03-21T04:02:18;5.47;;;2.17;;
23490;SDS011;14683;50.038;8.078;2023-03-21T04:04:45;4.93;;;2.00;;
23490;SDS011;14683;50.038;8.078;2023-03-21T04:07:12;6.22;;;2.60;;
23490;SDS011;14683;50.038;8.078;2023-03-21T04:09:39;4.78;;;2.20;;
23490;SDS011;14683;50.038;8.078;2023-03-21T04:12:07;5.63;;;2.85;;
23490;SDS011;14683;50.038;8.078;2023-03-21T04:14:34;7.13;;;2.55;;
23490;SDS011;14683;50.038;8.078;2023-03-21T04:17:03;4.85;;;2.22;;
23490;SDS011;14683;50.038;8.078;2023-03-21T04:19:30;6.90;;;2.60;;
23490;SDS011;14683;50.038;8.078;2023-03-21T04:21:57;5.97;;;2.50;;
23490;SDS011;14683;50.038;8.078;2023-03-21T04:24:23;7.68;;;2.42;;
23490;SDS011;14683;50.038;8.078;2023-03-21T04:26:50;5.57;;;2.33;;
23490;SDS011;14683;50.038;8.078;2023-03-21T04:29:47;3.38;;;2.40;;
23490;SDS011;14683;50.038;8.078;2023-03-21T04:32:37;3.58;;;2.53;;
23490;SDS011;14683;50.038;8.078;2023-03-21T04:35:11;5.57;;;2.40;;
23490;SDS011;14683;50.038;8.078;2023-03-21T04:42:32;6.50;;;2.40;;
23490;SDS011;14683;50.038;8.078;2023-03-21T04:44:59;7.93;;;2.30;;
23490;SDS011;14683;50.038;8.078;2023-03-21T04:47:26;5.63;;;2.80;;
23490;SDS011;14683;50.038;8.078;2023-03-21T04:49:54;6.70;;;2.67;;
23490;SDS011;14683;50.038;8.078;2023-03-21T04:52:22;4.38;;;2.55;;
23490;SDS011;14683;50.038;8.078;2023-03-21T04:54:48;4.88;;;2.55;;
23490;SDS011;14683;50.038;8.078;2023-03-21T04:57:14;6.25;;;2.60;;
23490;SDS011;14683;50.038;8.078;2023-03-21T04:59:42;7.15;;;2.70;;
23490;SDS011;14683;50.038;8.078;2023-03-21T05:02:08;4.55;;;2.50;;
23490;SDS011;14683;50.038;8.078;2023-03-21T05:04:34;8.88;;;2.75;;
23490;SDS011;14683;50.038;8.078;2023-03-21T05:07:00;7.25;;;2.80;;
23490;SDS011;14683;50.038;8.078;2023-03-21T05:09:26;4.32;;;2.45;;
23490;SDS011;14683;50.038;8.078;2023-03-21T05:14:20;4.18;;;2.92;;
23490;SDS011;14683;50.038;8.078;2023-03-21T05:16:48;8.55;;;4.43;;
23490;SDS011;14683;50.038;8.078;2023-03-21T05:19:18;10.80;;;3.85;;
23490;SDS011;14683;50.038;8.078;2023-03-21T05:21:47;9.20;;;3.40;;
23490;SDS011;14683;50.038;8.078;2023-03-21T05:24:24;5.38;;;3.33;;
23490;SDS011;14683;50.038;8.078;2023-03-21T05:26:51;7.88;;;2.70;;
23490;SDS011;14683;50.038;8.078;2023-03-21T05:29:22;5.75;;;3.10;;
23490;SDS011;14683;50.038;8.078;2023-03-21T05:31:57;7.47;;;3.05;;
23490;SDS011;14683;50.038;8.078;2023-03-21T05:34:24;6.65;;;3.20;;
23490;SDS011;14683;50.038;8.078;2023-03-21T05:36:52;6.20;;;3.28;;
23490;SDS011;14683;50.038;8.078;2023-03-21T05:39:19;6.07;;;3.10;;
23490;SDS011;14683;50.038;8.078;2023-03-21T05:41:57;9.32;;;3.42;;
23490;SDS011;14683;50.038;8.078;2023-03-21T05:44:24;8.27;;;3.70;;
23490;SDS011;14683;50.038;8.078;2023-03-21T05:49:19;7.75;;;3.53;;
23490;SDS011;14683;50.038;8.078;2023-03-21T05:51:48;5.85;;;2.97;;
23490;SDS011;14683;50.038;8.078;2023-03-21T05:56:43;5.15;;;3.17;;
23490;SDS011;14683;50.038;8.078;2023-03-21T05:59:13;8.27;;;2.72;;
23490;SDS011;14683;50.038;8.078;2023-03-21T06:01:43;6.97;;;3.22;;
23490;SDS011;14683;50.038;8.078;2023-03-21T06:04:13;7.55;;;3.22;;
23490;SDS011;14683;50.038;8.078;2023-03-21T06:06:40;7.43;;;3.30;;
23490;SDS011;14683;50.038;8.078;2023-03-21T06:09:06;8.43;;;3.50;;
23490;SDS011;14683;50.038;8.078;2023-03-21T06:11:33;7.90;;;3.53;;
23490;SDS011;14683;50.038;8.078;2023-03-21T06:14:27;7.95;;;4.28;;
23490;SDS011;14683;50.038;8.078;2023-03-21T06:17:09;11.05;;;4.40;;
23490;SDS011;14683;50.038;8.078;2023-03-21T06:19:41;7.88;;;4.95;;
23490;SDS011;14683;50.038;8.078;2023-03-21T06:22:15;6.82;;;4.75;;
23490;SDS011;14683;50.038;8.078;2023-03-21T06:24:41;8.00;;;5.28;;
23490;SDS011;14683;50.038;8.078;2023-03-21T06:29:47;11.98;;;5.35;;
23490;SDS011;14683;50.038;8.078;2023-03-21T06:34:39;20.20;;;9.40;;
23490;SDS011;14683;50.038;8.078;2023-03-21T06:37:05;11.05;;;6.05;;
23490;SDS011;14683;50.038;8.078;2023-03-21T06:39:33;8.93;;;4.57;;
23490;SDS011;14683;50.038;8.078;2023-03-21T06:41:59;8.55;;;4.25;;
23490;SDS011;14683;50.038;8.078;2023-03-21T06:44:26;10.43;;;4.05;;
23490;SDS011;14683;50.038;8.078;2023-03-21T06:46:58;5.78;;;4.05;;
23490;SDS011;14683;50.038;8.078;2023-03-21T06:54:19;7.80;;;3.92;;
23490;SDS011;14683;50.038;8.078;2023-03-21T06:56:51;8.77;;;4.40;;
23490;SDS011;14683;50.038;8.078;2023-03-21T06:59:24;8.07;;;3.78;;
23490;SDS011;14683;50.038;8.078;2023-03-21T07:01:54;7.25;;;3.85;;
23490;SDS011;14683;50.038;8.078;2023-03-21T07:06:47;21.27;;;10.30;;
23490;SDS011;14683;50.038;8.078;2023-03-21T07:09:14;11.05;;;4.97;;
23490;SDS011;14683;50.038;8.078;2023-03-21T07:11:42;6.88;;;4.30;;
23490;SDS011;14683;50.038;8.078;2023-03-21T07:14:08;7.90;;;4.40;;
23490;SDS011;14683;50.038;8.078;2023-03-21T07:19:00;5.72;;;4.00;;
23490;SDS011;14683;50.038;8.078;2023-03-21T07:21:26;8.82;;;3.65;;
23490;SDS011;14683;50.038;8.078;2023-03-21T07:23:54;6.63;;;3.78;;
23490;SDS011;14683;50.038;8.078;2023-03-21T07:26:20;8.70;;;4.18;;
23490;SDS011;14683;50.038;8.078;2023-03-21T07:31:12;7.80;;;4.40;;
23490;SDS011;14683;50.038;8.078;2023-03-21T07:33:40;7.72;;;3.47;;
23490;SDS011;14683;50.038;8.078;2023-03-21T07:36:11;8.52;;;3.47;;
23490;SDS011;14683;50.038;8.078;2023-03-21T07:38:38;10.75;;;3.95;;
23490;SDS011;14683;50.038;8.078;2023-03-21T07:41:05;10.52;;;4.10;;
23490;SDS011;14683;50.038;8.078;2023-03-21T07:43:33;6.70;;;4.40;;
23490;SDS011;14683;50.038;8.078;2023-03-21T07:48:26;10.83;;;4.33;;
23490;SDS011;14683;50.038;8.078;2023-03-21T07:50:52;6.88;;;3.80;;
23490;SDS011;14683;50.038;8.078;2023-03-21T07:53:18;8.48;;;4.40;;
23490;SDS011;14683;50.038;8.078;2023-03-21T07:58:13;11.02;;;4.38;;
23490;SDS011;14683;50.038;8.078;2023-03-21T08:00:40;8.48;;;4.57;;
23490;SDS011;14683;50.038;8.078;2023-03-21T08:03:07;11.10;;;5.88;;
23490;SDS011;14683;50.038;8.078;2023-03-21T08:05:33;8.40;;;5.05;;
23490;SDS011;14683;50.038;8.078;2023-03-21T08:08:00;12.55;;;5.97;;
23490;SDS011;14683;50.038;8.078;2023-03-21T08:10:27;9.77;;;5.10;;
23490;SDS011;14683;50.038;8.078;2023-03-21T08:12:53;9.40;;;5.28;;
23490;SDS011;14683;50.038;8.078;2023-03-21T08:15:19;8.88;;;4.60;;
23490;SDS011;14683;50.038;8.078;2023-03-21T08:17:45;13.57;;;5.38;;
23490;SDS011;14683;50.038;8.078;2023-03-21T08:20:12;12.30;;;4.75;;
23490;SDS011;14683;50.038;8.078;2023-03-21T08:22:40;10.25;;;4.50;;
23490;SDS011;14683;50.038;8.078;2023-03-21T08:25:08;9.25;;;4.47;;
23490;SDS011;14683;50.038;8.078;2023-03-21T08:27:41;9.57;;;4.43;;
23490;SDS011;14683;50.038;8.078;2023-03-21T08:30:11;11.18;;;4.70;;
23490;SDS011;14683;50.038;8.078;2023-03-21T08:32:38;10.00;;;4.90;;
23490;SDS011;14683;50.038;8.078;2023-03-21T08:35:05;5.80;;;4.53;;
23490;SDS011;14683;50.038;8.078;2023-03-21T08:37:37;7.55;;;4.72;;
23490;SDS011;14683;50.038;8.078;2023-03-21T08:40:04;7.57;;;4.70;;
23490;SDS011;14683;50.038;8.078;2023-03-21T08:42:33;11.40;;;5.55;;
23490;SDS011;14683;50.038;8.078;2023-03-21T08:45:00;11.75;;;4.95;;
23490;SDS011;14683;50.038;8.078;2023-03-21T08:47:26;11.75;;;4.85;;
23490;SDS011;14683;50.038;8.078;2023-03-21T08:49:52;13.20;;;5.63;;
23490;SDS011;14683;50.038;8.078;2023-03-21T08:52:18;9.65;;;4.75;;
23490;SDS011;14683;50.038;8.078;2023-03-21T08:54:44;8.93;;;5.30;;
23490;SDS011;14683;50.038;8.078;2023-03-21T08:57:10;12.57;;;5.00;;
23490;SDS011;14683;50.038;8.078;2023-03-21T08:59:36;13.73;;;5.70;;
23490;SDS011;14683;50.038;8.078;2023-03-21T09:02:03;10.68;;;5.53;;
23490;SDS011;14683;50.038;8.078;2023-03-21T09:04:29;11.70;;;5.57;;
23490;SDS011;14683;50.038;8.078;2023-03-21T09:06:55;9.68;;;5.07;;
23490;SDS011;14683;50.038;8.078;2023-03-21T09:11:47;10.10;;;5.03;;
23490;SDS011;14683;50.038;8.078;2023-03-21T09:14:13;11.05;;;5.82;;
23490;SDS011;14683;50.038;8.078;2023-03-21T09:16:40;8.57;;;5.05;;
23490;SDS011;14683;50.038;8.078;2023-03-21T09:21:33;7.63;;;5.13;;
23490;SDS011;14683;50.038;8.078;2023-03-21T09:24:00;9.50;;;5.03;;
23490;SDS011;14683;50.038;8.078;2023-03-21T09:26:27;10.85;;;5.10;;
23490;SDS011;14683;50.038;8.078;2023-03-21T09:28:54;11.88;;;4.55;;
23490;SDS011;14683;50.038;8.078;2023-03-21T09:31:21;10.23;;;4.90;;
23490;SDS011;14683;50.038;8.078;2023-03-21T09:33:48;13.75;;;5.82;;
23490;SDS011;14683;50.038;8.078;2023-03-21T09:36:15;12.43;;;5.90;;
23490;SDS011;14683;50.038;8.078;2023-03-21T09:38:42;11.40;;;6.50;;
23490;SDS011;14683;50.038;8.078;2023-03-21T09:49:10;10.60;;;5.20;;
23490;SDS011;14683;50.038;8.078;2023-03-21T09:51:45;10.05;;;5.55;;
23490;SDS011;14683;50.038;8.078;2023-03-21T09:56:53;7.20;;;4.90;;
23490;SDS011;14683;50.038;8.078;2023-03-21T09:59:33;11.15;;;5.63;;
23490;SDS011;14683;50.038;8.078;2023-03-21T10:02:19;11.25;;;5.25;;
23490;SDS011;14683;50.038;8.078;2023-03-21T10:05:00;11.07;;;4.85;;
23490;SDS011;14683;50.038;8.078;2023-03-21T10:07:29;11.95;;;5.18;;
23490;SDS011;14683;50.038;8.078;2023-03-21T10:09:57;12.20;;;5.40;;
23490;SDS011;14683;50.038;8.078;2023-03-21T10:12:24;10.40;;;4.68;;
23490;SDS011;14683;50.038;8.078;2023-03-21T10:14:55;13.45;;;4.82;;
23490;SDS011;14683;50.038;8.078;2023-03-21T10:20:13;9.50;;;4.53;;
23490;SDS011;14683;50.038;8.078;2023-03-21T10:22:40;9.73;;;5.13;;
23490;SDS011;14683;50.038;8.078;2023-03-21T10:25:09;9.05;;;4.80;;
23490;SDS011;14683;50.038;8.078;2023-03-21T10:27:39;8.85;;;4.60;;
23490;SDS011;14683;50.038;8.078;2023-03-21T10:30:06;7.95;;;4.65;;
23490;SDS011;14683;50.038;8.078;2023-03-21T10:32:34;8.70;;;5.07;;
23490;SDS011;14683;50.038;8.078;2023-03-21T10:35:00;16.90;;;5.28;;
23490;SDS011;14683;50.038;8.078;2023-03-21T10:37:29;9.93;;;5.90;;
23490;SDS011;14683;50.038;8.078;2023-03-21T10:39:56;11.40;;;5.95;;
23490;SDS011;14683;50.038;8.078;2023-03-21T10:42:27;12.25;;;6.38;;
23490;SDS011;14683;50.038;8.078;2023-03-21T10:44:57;10.15;;;5.15;;
23490;SDS011;14683;50.038;8.078;2023-03-21T10:47:29;11.13;;;5.93;;
23490;SDS011;14683;50.038;8.078;2023-03-21T10:50:06;9.10;;;5.55;;
23490;SDS011;14683;50.038;8.078;2023-03-21T10:52:36;12.35;;;5.47;;
23490;SDS011;14683;50.038;8.078;2023-03-21T10:55:11;7.70;;;5.57;;
23490;SDS011;14683;50.038;8.078;2023-03-21T10:57:46;8.20;;;5.40;;
23490;SDS011;14683;50.038;8.078;2023-03-21T11:02:45;7.25;;;5.15;;
23490;SDS011;14683;50.038;8.078;2023-03-21T11:05:16;10.63;;;5.63;;
23490;SDS011;14683;50.038;8.078;2023-03-21T11:07:54;9.18;;;5.97;;
23490;SDS011;14683;50.038;8.078;2023-03-21T11:10:26;12.60;;;6.88;;
23490;SDS011;14683;50.038;8.078;2023-03-21T11:12:55;9.95;;;4.82;;
23490;SDS011;14683;50.038;8.078;2023-03-21T11:15:30;12.55;;;4.85;;
23490;SDS011;14683;50.038;8.078;2023-03-21T11:18:12;9.07;;;5.18;;
23490;SDS011;14683;50.038;8.078;2023-03-21T11:20:53;7.60;;;4.32;;
23490;SDS011;14683;50.038;8.078;2023-03-21T11:23:20;10.65;;;5.32;;
23490;SDS011;14683;50.038;8.078;2023-03-21T11:25:51;10.02;;;5.38;;
23490;SDS011;14683;50.038;8.078;2023-03-21T11:28:18;13.85;;;5.60;;
23490;SDS011;14683;50.038;8.078;2023-03-21T11:30:56;9.10;;;5.15;;
23490;SDS011;14683;50.038;8.078;2023-03-21T11:36:00;15.57;;;6.38;;
23490;SDS011;14683;50.038;8.078;2023-03-21T11:38:31;11.93;;;5.88;;
23490;SDS011;14683;50.038;8.078;2023-03-21T11:41:01;6.88;;;5.07;;
23490;SDS011;14683;50.038;8.078;2023-03-21T11:43:29;9.90;;;5.22;;
23490;SDS011;14683;50.038;8.078;2023-03-21T11:48:30;12.75;;;5.18;;
23490;SDS011;14683;50.038;8.078;2023-03-21T11:51:01;9.63;;;6.00;;
23490;SDS011;14683;50.038;8.078;2023-03-21T11:56:25;14.90;;;6.07;;
23490;SDS011;14683;50.038;8.078;2023-03-21T12:01:54;14.07;;;7.50;;
23490;SDS011;14683;50.038;8.078;2023-03-21T12:04:46;15.15;;;6.78;;
23490;SDS011;14683;50.038;8.078;2023-03-21T12:07:26;13.38;;;6.40;;
23490;SDS011;14683;50.038;8.078;2023-03-21T12:13:09;14.55;;;5.80;;
23490;SDS011;14683;50.038;8.078;2023-03-21T12:16:07;14.35;;;6.18;;
23490;SDS011;14683;50.038;8.078;2023-03-21T12:21:19;9.52;;;5.32;;
23490;SDS011;14683;50.038;8.078;2023-03-21T12:26:25;12.18;;;5.72;;
23490;SDS011;14683;50.038;8.078;2023-03-21T12:37:26;10.10;;;6.00;;
23490;SDS011;14683;50.038;8.078;2023-03-21T12:39:58;15.35;;;6.32;;
23490;SDS011;14683;50.038;8.078;2023-03-21T12:47:56;10.95;;;5.90;;
23490;SDS011;14683;50.038;8.078;2023-03-21T12:50:30;11.75;;;6.60;;
23490;SDS011;14683;50.038;8.078;2023-03-21T12:53:22;9.52;;;6.65;;
23490;SDS011;14683;50.038;8.078;2023-03-21T12:56:19;8.30;;;6.00;;
23490;SDS011;14683;50.038;8.078;2023-03-21T12:58:51;11.10;;;5.97;;
23490;SDS011;14683;50.038;8.078;2023-03-21T13:01:31;8.82;;;5.72;;
23490;SDS011;14683;50.038;8.078;2023-03-21T13:04:09;12.68;;;6.55;;
23490;SDS011;14683;50.038;8.078;2023-03-21T13:06:47;12.25;;;6.25;;
23490;SDS011;14683;50.038;8.078;2023-03-21T13:09:34;14.77;;;6.63;;
23490;SDS011;14683;50.038;8.078;2023-03-21T13:17:31;13.70;;;8.25;;
23490;SDS011;14683;50.038;8.078;2023-03-21T13:22:47;15.32;;;9.95;;
23490;SDS011;14683;50.038;8.078;2023-03-21T13:25:22;13.85;;;9.30;;
23490;SDS011;14683;50.038;8.078;2023-03-21T13:27:53;12.40;;;7.65;;
23490;SDS011;14683;50.038;8.078;2023-03-21T13:30:25;12.98;;;7.80;;
23490;SDS011;14683;50.038;8.078;2023-03-21T13:33:06;10.95;;;7.80;;
23490;SDS011;14683;50.038;8.078;2023-03-21T13:35:37;9.25;;;6.85;;
23490;SDS011;14683;50.038;8.078;2023-03-21T13:38:16;10.00;;;6.90;;
23490;SDS011;14683;50.038;8.078;2023-03-21T13:40:49;11.13;;;7.15;;
23490;SDS011;14683;50.038;8.078;2023-03-21T13:48:57;14.48;;;7.43;;
23490;SDS011;14683;50.038;8.078;2023-03-21T13:51:54;13.85;;;7.57;;
23490;SDS011;14683;50.038;8.078;2023-03-21T13:54:43;8.55;;;6.47;;
23490;SDS011;14683;50.038;8.078;2023-03-21T13:57:21;10.93;;;7.70;;
23490;SDS011;14683;50.038;8.078;2023-03-21T13:59:47;11.05;;;7.90;;
23490;SDS011;14683;50.038;8.078;2023-03-21T14:04:45;17.45;;;7.38;;
23490;SDS011;14683;50.038;8.078;2023-03-21T14:07:15;13.73;;;7.07;;
23490;SDS011;14683;50.038;8.078;2023-03-21T14:09:46;10.38;;;7.32;;
23490;SDS011;14683;50.038;8.078;2023-03-21T14:12:18;13.40;;;6.88;;
23490;SDS011;14683;50.038;8.078;2023-03-21T14:14:50;9.57;;;6.97;;
23490;SDS011;14683;50.038;8.078;2023-03-21T14:19:52;11.32;;;8.05;;
23490;SDS011;14683;50.038;8.078;2023-03-21T14:22:19;17.02;;;9.90;;
23490;SDS011;14683;50.038;8.078;2023-03-21T14:24:46;16.25;;;8.65;;
23490;SDS011;14683;50.038;8.078;2023-03-21T14:27:23;12.73;;;9.05;;
23490;SDS011;14683;50.038;8.078;2023-03-21T14:29:49;15.70;;;9.63;;
23490;SDS011;14683;50.038;8.078;2023-03-21T14:32:18;15.75;;;8.93;;
23490;SDS011;14683;50.038;8.078;2023-03-21T14:34:48;12.93;;;9.23;;
23490;SDS011;14683;50.038;8.078;2023-03-21T14:37:36;17.23;;;10.00;;
23490;SDS011;14683;50.038;8.078;2023-03-21T14:40:06;14.30;;;8.65;;
23490;SDS011;14683;50.038;8.078;2023-03-21T14:42:46;12.85;;;8.38;;
23490;SDS011;14683;50.038;8.078;2023-03-21T14:45:26;13.40;;;8.50;;
23490;SDS011;14683;50.038;8.078;2023-03-21T14:52:58;12.95;;;8.00;;
23490;SDS011;14683;50.038;8.078;2023-03-21T14:55:24;11.43;;;7.47;;
23490;SDS011;14683;50.038;8.078;2023-03-21T14:57:53;11.52;;;7.72;;
23490;SDS011;14683;50.038;8.078;2023-03-21T15:00:22;12.65;;;8.02;;
23490;SDS011;14683;50.038;8.078;2023-03-21T15:02:50;10.13;;;7.57;;
23490;SDS011;14683;50.038;8.078;2023-03-21T15:05:24;12.95;;;7.75;;
23490;SDS011;14683;50.038;8.078;2023-03-21T15:07:56;12.02;;;7.80;;
23490;SDS011;14683;50.038;8.078;2023-03-21T15:10:26;13.07;;;8.55;;
23490;SDS011;14683;50.038;8.078;2023-03-21T15:12:55;12.98;;;8.77;;
23490;SDS011;14683;50.038;8.078;2023-03-21T15:15:23;15.45;;;9.95;;
23490;SDS011;14683;50.038;8.078;2023-03-21T15:17:50;13.85;;;9.05;;
23490;SDS011;14683;50.038;8.078;2023-03-21T15:20:18;14.05;;;9.65;;
23490;SDS011;14683;50.038;8.078;2023-03-21T15:23:29;15.10;;;9.00;;
23490;SDS011;14683;50.038;8.078;2023-03-21T15:25:36;10.98;;;8.30;;
23490;SDS011;14683;50.038;8.078;2023-03-21T15:28:03;13.15;;;8.77;;
23490;SDS011;14683;50.038;8.078;2023-03-21T15:32:56;16.55;;;10.27;;
23490;SDS011;14683;50.038;8.078;2023-03-21T15:35:45;14.43;;;10.27;;
23490;SDS011;14683;50.038;8.078;2023-03-21T15:38:20;16.20;;;10.60;;
23490;SDS011;14683;50.038;8.078;2023-03-21T15:43:42;19.92;;;10.43;;
23490;SDS011;14683;50.038;8.078;2023-03-21T15:46:13;23.95;;;14.93;;
23490;SDS011;14683;50.038;8.078;2023-03-21T15:48:40;24.58;;;15.57;;
23490;SDS011;14683;50.038;8.078;2023-03-21T15:53:36;13.75;;;8.82;;
23490;SDS011;14683;50.038;8.078;2023-03-21T15:56:04;14.23;;;9.32;;
23490;SDS011;14683;50.038;8.078;2023-03-21T15:58:31;17.17;;;9.82;;
23490;SDS011;14683;50.038;8.078;2023-03-21T16:01:01;14.20;;;9.65;;
23490;SDS011;14683;50.038;8.078;2023-03-21T16:03:30;14.05;;;9.60;;
23490;SDS011;14683;50.038;8.078;2023-03-21T16:06:04;13.98;;;9.80;;
23490;SDS011;14683;50.038;8.078;2023-03-21T16:08:47;13.70;;;9.65;;
23490;SDS011;14683;50.038;8.078;2023-03-21T16:11:26;15.07;;;10.27;;
23490;SDS011;14683;50.038;8.078;2023-03-21T16:13:53;15.10;;;9.77;;
23490;SDS011;14683;50.038;8.078;2023-03-21T16:16:21;13.93;;;10.35;;
23490;SDS011;14683;50.038;8.078;2023-03-21T16:18:49;14.10;;;8.85;;
23490;SDS011;14683;50.038;8.078;2023-03-21T16:21:17;13.48;;;8.93;;
23490;SDS011;14683;50.038;8.078;2023-03-21T16:23:45;12.73;;;8.52;;
23490;SDS011;14683;50.038;8.078;2023-03-21T16:26:18;12.43;;;9.35;;
23490;SDS011;14683;50.038;8.078;2023-03-21T16:28:46;13.13;;;9.48;;
23490;SDS011;14683;50.038;8.078;2023-03-21T16:31:13;17.67;;;9.50;;
23490;SDS011;14683;50.038;8.078;2023-03-21T16:33:41;16.48;;;9.52;;
23490;SDS011;14683;50.038;8.078;2023-03-21T16:36:17;14.88;;;9.93;;
23490;SDS011;14683;50.038;8.078;2023-03-21T16:38:44;13.77;;;9.38;;
23490;SDS011;14683;50.038;8.078;2023-03-21T16:41:12;14.95;;;9.35;;
23490;SDS011;14683;50.038;8.078;2023-03-21T16:43:39;14.70;;;9.20;;
23490;SDS011;14683;50.038;8.078;2023-03-21T16:48:41;14.98;;;10.25;;
23490;SDS011;14683;50.038;8.078;2023-03-21T16:51:15;15.82;;;10.55;;
23490;SDS011;14683;50.038;8.078;2023-03-21T16:53:43;13.80;;;9.80;;
23490;SDS011;14683;50.038;8.078;2023-03-21T16:56:13;18.85;;;11.02;;
23490;SDS011;14683;50.038;8.078;2023-03-21T16:58:41;16.63;;;11.73;;
23490;SDS011;14683;50.038;8.078;2023-03-21T17:01:10;21.05;;;11.40;;
23490;SDS011;14683;50.038;8.078;2023-03-21T17:03:50;16.20;;;11.45;;
23490;SDS011;14683;50.038;8.078;2023-03-21T17:06:17;23.70;;;12.38;;
23490;SDS011;14683;50.038;8.078;2023-03-21T17:08:45;21.35;;;12.35;;
23490;SDS011;14683;50.038;8.078;2023-03-21T17:11:12;19.92;;;13.02;;
23490;SDS011;14683;50.038;8.078;2023-03-21T17:13:41;23.33;;;12.90;;
23490;SDS011;14683;50.038;8.078;2023-03-21T17:16:16;24.50;;;12.98;;
23490;SDS011;14683;50.038;8.078;2023-03-21T17:18:46;25.65;;;17.15;;
23490;SDS011;14683;50.038;8.078;2023-03-21T17:21:17;28.70;;;17.83;;
23490;SDS011;14683;50.038;8.078;2023-03-21T17:23:45;19.42;;;14.68;;
23490;SDS011;14683;50.038;8.078;2023-03-21T17:26:12;20.92;;;13.88;;
23490;SDS011;14683;50.038;8.078;2023-03-21T17:28:39;29.08;;;15.73;;
23490;SDS011;14683;50.038;8.078;2023-03-21T17:31:16;24.17;;;13.98;;
23490;SDS011;14683;50.038;8.078;2023-03-21T17:33:46;21.17;;;13.23;;
23490;SDS011;14683;50.038;8.078;2023-03-21T17:36:13;27.25;;;15.23;;
23490;SDS011;14683;50.038;8.078;2023-03-21T17:38:41;28.58;;;15.70;;
23490;SDS011;14683;50.038;8.078;2023-03-21T17:41:09;23.65;;;14.18;;
23490;SDS011;14683;50.038;8.078;2023-03-21T17:43:37;25.00;;;14.82;;
23490;SDS011;14683;50.038;8.078;2023-03-21T17:46:03;25.25;;;15.85;;
23490;SDS011;14683;50.038;8.078;2023-03-21T17:48:29;31.30;;;19.10;;
23490;SDS011;14683;50.038;8.078;2023-03-21T17:53:21;33.75;;;20.83;;
23490;SDS011;14683;50.038;8.078;2023-03-21T17:55:47;27.02;;;16.33;;
23490;SDS011;14683;50.038;8.078;2023-03-21T17:58:13;23.90;;;15.70;;
23490;SDS011;14683;50.038;8.078;2023-03-21T18:00:39;28.20;;;17.95;;
23490;SDS011;14683;50.038;8.078;2023-03-21T18:03:05;26.15;;;16.65;;
23490;SDS011;14683;50.038;8.078;2023-03-21T18:05:31;20.80;;;14.93;;
23490;SDS011;14683;50.038;8.078;2023-03-21T18:07:58;25.13;;;15.27;;
23490;SDS011;14683;50.038;8.078;2023-03-21T18:12:50;25.30;;;15.13;;
23490;SDS011;14683;50.038;8.078;2023-03-21T18:15:19;23.25;;;16.00;;
23490;SDS011;14683;50.038;8.078;2023-03-21T18:20:12;24.52;;;17.02;;
23490;SDS011;14683;50.038;8.078;2023-03-21T18:22:44;37.97;;;22.55;;
23490;SDS011;14683;50.038;8.078;2023-03-21T18:25:11;93.63;;;48.30;;
23490;SDS011;14683;50.038;8.078;2023-03-21T18:27:39;34.70;;;20.83;;
23490;SDS011;14683;50.038;8.078;2023-03-21T18:30:06;33.20;;;19.70;;
23490;SDS011;14683;50.038;8.078;2023-03-21T18:32:36;28.33;;;18.67;;
23490;SDS011;14683;50.038;8.078;2023-03-21T18:35:03;32.92;;;19.30;;
23490;SDS011;14683;50.038;8.078;2023-03-21T18:37:30;28.70;;;18.77;;
23490;SDS011;14683;50.038;8.078;2023-03-21T18:42:23;34.43;;;23.23;;
23490;SDS011;14683;50.038;8.078;2023-03-21T18:44:49;53.55;;;32.03;;
23490;SDS011;14683;50.038;8.078;2023-03-21T18:49:41;34.08;;;21.08;;
23490;SDS011;14683;50.038;8.078;2023-03-21T18:52:07;34.47;;;20.35;;
23490;SDS011;14683;50.038;8.078;2023-03-21T18:54:34;31.00;;;20.73;;
23490;SDS011;14683;50.038;8.078;2023-03-21T18:57:01;32.90;;;20.75;;
23490;SDS011;14683;50.038;8.078;2023-03-21T18:59:30;32.65;;;20.48;;
23490;SDS011;14683;50.038;8.078;2023-03-21T19:01:57;31.55;;;21.23;;
23490;SDS011;14683;50.038;8.078;2023-03-21T19:04:23;36.38;;;21.73;;
23490;SDS011;14683;50.038;8.078;2023-03-21T19:06:49;34.05;;;22.17;;
23490;SDS011;14683;50.038;8.078;2023-03-21T19:09:15;30.02;;;22.42;;
23490;SDS011;14683;50.038;8.078;2023-03-21T19:11:41;34.47;;;24.35;;
23490;SDS011;14683;50.038;8.078;2023-03-21T19:14:08;33.05;;;23.33;;
23490;SDS011;14683;50.038;8.078;2023-03-21T19:16:38;31.02;;;19.08;;
23490;SDS011;14683;50.038;8.078;2023-03-21T19:19:05;30.10;;;19.63;;
23490;SDS011;14683;50.038;8.078;2023-03-21T19:21:31;31.95;;;20.45;;
23490;SDS011;14683;50.038;8.078;2023-03-21T19:23:57;30.85;;;20.40;;
23490;SDS011;14683;50.038;8.078;2023-03-21T19:26:24;30.40;;;20.63;;
23490;SDS011;14683;50.038;8.078;2023-03-21T19:28:50;32.85;;;20.88;;
23490;SDS011;14683;50.038;8.078;2023-03-21T19:31:16;40.03;;;23.75;;
23490;SDS011;14683;50.038;8.078;2023-03-21T19:33:43;47.92;;;25.58;;
23490;SDS011;14683;50.038;8.078;2023-03-21T19:36:09;39.63;;;24.92;;
23490;SDS011;14683;50.038;8.078;2023-03-21T19:38:36;34.13;;;24.05;;
23490;SDS011;14683;50.038;8.078;2023-03-21T19:43:28;91.47;;;53.45;;
23490;SDS011;14683;50.038;8.078;2023-03-21T19:45:54;46.00;;;26.83;;
23490;SDS011;14683;50.038;8.078;2023-03-21T19:48:25;37.35;;;24.63;;
23490;SDS011;14683;50.038;8.078;2023-03-21T19:50:52;34.58;;;22.75;;
23490;SDS011;14683;50.038;8.078;2023-03-21T19:53:18;41.88;;;21.67;;
23490;SDS011;14683;50.038;8.078;2023-03-21T19:55:48;37.92;;;24.30;;
23490;SDS011;14683;50.038;8.078;2023-03-21T19:58:16;35.17;;;22.95;;
23490;SDS011;14683;50.038;8.078;2023-03-21T20:00:44;39.78;;;23.38;;
23490;SDS011;14683;50.038;8.078;2023-03-21T20:03:10;40.80;;;25.55;;
23490;SDS011;14683;50.038;8.078;2023-03-21T20:08:02;35.55;;;23.55;;
23490;SDS011;14683;50.038;8.078;2023-03-21T20:10:28;39.47;;;25.00;;
23490;SDS011;14683;50.038;8.078;2023-03-21T20:15:20;32.92;;;21.52;;
23490;SDS011;14683;50.038;8.078;2023-03-21T20:20:12;35.72;;;21.35;;
23490;SDS011;14683;50.038;8.078;2023-03-21T20:22:41;37.83;;;23.63;;
23490;SDS011;14683;50.038;8.078;2023-03-21T20:25:08;35.75;;;22.80;;
23490;SDS011;14683;50.038;8.078;2023-03-21T20:27:35;28.80;;;19.27;;
23490;SDS011;14683;50.038;8.078;2023-03-21T20:30:05;33.28;;;18.77;;
23490;SDS011;14683;50.038;8.078;2023-03-21T20:32:38;39.08;;;20.88;;
23490;SDS011;14683;50.038;8.078;2023-03-21T20:35:06;29.60;;;19.50;;
23490;SDS011;14683;50.038;8.078;2023-03-21T20:37:33;37.95;;;22.05;;
23490;SDS011;14683;50.038;8.078;2023-03-21T20:40:01;49.03;;;28.60;;
23490;SDS011;14683;50.038;8.078;2023-03-21T20:42:29;76.68;;;40.70;;
23490;SDS011;14683;50.038;8.078;2023-03-21T20:44:55;72.97;;;40.03;;
23490;SDS011;14683;50.038;8.078;2023-03-21T20:47:23;64.38;;;35.35;;
23490;SDS011;14683;50.038;8.078;2023-03-21T20:52:15;54.30;;;32.38;;
23490;SDS011;14683;50.038;8.078;2023-03-21T20:54:41;54.80;;;30.48;;
23490;SDS011;14683;50.038;8.078;2023-03-21T20:57:07;49.70;;;29.20;;
23490;SDS011;14683;50.038;8.078;2023-03-21T20:59:33;42.47;;;24.60;;
23490;SDS011;14683;50.038;8.078;2023-03-21T21:01:59;39.53;;;24.02;;
23490;SDS011;14683;50.038;8.078;2023-03-21T21:04:26;35.88;;;23.75;;
23490;SDS011;14683;50.038;8.078;2023-03-21T21:06:54;41.47;;;24.38;;